createdAt,value
2018-12-08T00:02:09.671Z,9.30
2018-12-08T00:04:37.194Z,9.20
2018-12-08T00:07:04.674Z,9.20
2018-12-08T00:09:32.145Z,9.20
2018-12-08T00:11:59.650Z,9.20
2018-12-08T00:14:27.130Z,9.20
2018-12-08T00:16:54.605Z,9.20
2018-12-08T00:19:22.107Z,9.20
2018-12-08T00:21:50.390Z,9.20
2018-12-08T00:24:17.861Z,9.20
2018-12-08T00:26:45.370Z,9.20
2018-12-08T00:29:12.840Z,9.20
2018-12-08T00:31:44.091Z,9.20
2018-12-08T00:34:11.714Z,9.20
2018-12-08T00:36:39.189Z,9.20
2018-12-08T00:39:06.861Z,9.20
2018-12-08T00:41:34.369Z,9.30
2018-12-08T00:44:01.846Z,9.20
2018-12-08T00:46:29.325Z,9.20
2018-12-08T00:48:56.836Z,9.30
2018-12-08T00:51:24.304Z,9.30
2018-12-08T00:53:51.879Z,9.30
2018-12-08T00:56:19.389Z,9.30
2018-12-08T00:58:46.874Z,9.20
2018-12-08T01:01:14.349Z,9.30
2018-12-08T01:03:41.866Z,9.30
2018-12-08T01:06:09.338Z,9.30
2018-12-08T01:08:36.805Z,9.30
2018-12-08T01:11:04.329Z,9.30
2018-12-08T01:13:31.809Z,9.30
2018-12-08T01:15:59.284Z,9.30
2018-12-08T01:18:26.792Z,9.30
2018-12-08T01:20:54.260Z,9.30
2018-12-08T01:23:21.728Z,9.30
2018-12-08T01:25:49.314Z,9.40
2018-12-08T01:28:16.799Z,9.30
2018-12-08T01:30:44.268Z,9.30
2018-12-08T01:33:11.769Z,9.40
2018-12-08T01:35:39.241Z,9.30
2018-12-08T01:38:06.717Z,9.40
2018-12-08T01:40:34.316Z,9.40
2018-12-08T01:43:01.788Z,9.40
2018-12-08T01:45:29.261Z,9.40
2018-12-08T01:47:56.761Z,9.40
2018-12-08T01:50:24.233Z,9.40
2018-12-08T01:52:51.713Z,9.30
2018-12-08T01:55:19.225Z,9.30
2018-12-08T01:57:46.693Z,9.30
2018-12-08T02:00:14.168Z,9.30
2018-12-08T02:02:41.692Z,9.30
2018-12-08T02:05:09.172Z,9.40
2018-12-08T02:07:36.647Z,9.40
2018-12-08T02:10:05.473Z,9.40
2018-12-08T02:12:32.946Z,9.30
2018-12-08T02:15:00.417Z,9.40
2018-12-08T02:17:27.909Z,9.40
2018-12-08T02:19:55.389Z,9.40
2018-12-08T02:22:22.856Z,9.40
2018-12-08T02:24:55.213Z,9.40
2018-12-08T02:27:22.693Z,9.40
2018-12-08T02:29:50.167Z,9.40
2018-12-08T02:32:17.894Z,9.40
2018-12-08T02:34:45.360Z,9.40
2018-12-08T02:37:12.829Z,9.30
2018-12-08T02:39:40.365Z,9.30
2018-12-08T02:42:07.847Z,9.20
2018-12-08T02:44:35.317Z,9.20
2018-12-08T02:47:02.814Z,9.20
2018-12-08T02:49:30.397Z,9.20
2018-12-08T02:51:58.573Z,9.30
2018-12-08T02:54:26.109Z,9.20
2018-12-08T02:56:53.590Z,9.20
2018-12-08T02:59:21.056Z,9.20
2018-12-08T03:01:48.545Z,9.30
2018-12-08T03:04:16.016Z,9.30
2018-12-08T03:06:43.486Z,9.30
2018-12-08T03:09:10.981Z,9.20
2018-12-08T03:11:38.453Z,9.20
2018-12-08T03:14:05.922Z,9.10
2018-12-08T03:16:33.513Z,9.10
2018-12-08T03:19:00.988Z,9.10
2018-12-08T03:21:28.460Z,9.00
2018-12-08T03:23:55.963Z,9.00
2018-12-08T03:26:23.432Z,9.00
2018-12-08T03:28:50.945Z,8.90
2018-12-08T03:31:18.588Z,8.90
2018-12-08T03:33:46.056Z,8.90
2018-12-08T03:36:13.524Z,9.00
2018-12-08T03:38:41.026Z,9.00
2018-12-08T03:41:08.497Z,8.90
2018-12-08T03:43:35.964Z,8.90
2018-12-08T03:46:03.466Z,8.80
2018-12-08T03:48:30.932Z,8.90
2018-12-08T03:50:58.402Z,8.80
2018-12-08T03:53:25.902Z,8.80
2018-12-08T03:55:53.370Z,8.70
2018-12-08T03:58:20.838Z,8.70
2018-12-08T04:00:48.444Z,8.70
2018-12-08T04:03:15.912Z,8.60
2018-12-08T04:05:43.386Z,8.50
2018-12-08T04:08:10.910Z,8.50
2018-12-08T04:10:38.374Z,8.50
2018-12-08T04:13:05.852Z,8.40
2018-12-08T04:15:33.441Z,8.40
2018-12-08T04:18:00.904Z,8.20
2018-12-08T04:20:28.378Z,8.20
2018-12-08T04:22:56.085Z,8.10
2018-12-08T04:25:23.564Z,8.00
2018-12-08T04:27:51.040Z,7.90
2018-12-08T04:30:18.886Z,7.80
2018-12-08T04:32:46.357Z,7.70
2018-12-08T04:35:13.826Z,7.60
2018-12-08T04:37:41.341Z,7.50
2018-12-08T04:40:08.817Z,7.40
2018-12-08T04:42:36.304Z,7.30
2018-12-08T04:45:04.137Z,7.30
2018-12-08T04:47:31.605Z,7.30
2018-12-08T04:49:59.264Z,7.30
2018-12-08T04:52:26.796Z,7.30
2018-12-08T04:54:54.269Z,7.30
2018-12-08T04:57:21.739Z,7.30
2018-12-08T04:59:49.239Z,7.20
2018-12-08T05:02:16.710Z,7.20
2018-12-08T05:04:44.274Z,7.10
2018-12-08T05:07:11.785Z,7.10
2018-12-08T05:09:39.252Z,7.00
2018-12-08T05:12:06.723Z,7.00
2018-12-08T05:14:34.213Z,7.00
2018-12-08T05:17:01.685Z,7.00
2018-12-08T05:19:29.187Z,7.00
2018-12-08T05:21:56.780Z,6.90
2018-12-08T05:24:24.249Z,6.90
2018-12-08T05:26:51.720Z,6.90
2018-12-08T05:29:19.225Z,6.90
2018-12-08T05:31:46.841Z,6.80
2018-12-08T05:34:14.317Z,6.90
2018-12-08T05:36:41.810Z,6.80
2018-12-08T05:39:09.380Z,6.80
2018-12-08T05:41:36.845Z,6.80
2018-12-08T05:44:04.348Z,6.80
2018-12-08T05:46:31.816Z,6.80
2018-12-08T05:48:59.285Z,6.90
2018-12-08T05:51:26.793Z,6.80
2018-12-08T05:53:54.269Z,6.80
2018-12-08T05:56:21.750Z,6.80
2018-12-08T05:58:49.252Z,6.90
2018-12-08T06:01:16.751Z,6.80
2018-12-08T06:03:44.215Z,6.80
2018-12-08T06:06:11.716Z,6.80
2018-12-08T06:08:39.186Z,6.80
2018-12-08T06:11:06.659Z,6.80
2018-12-08T06:13:34.158Z,6.80
2018-12-08T06:16:01.630Z,6.80
2018-12-08T06:18:29.192Z,6.80
2018-12-08T06:20:56.701Z,6.80
2018-12-08T06:23:24.173Z,6.70
2018-12-08T06:25:51.741Z,6.70
2018-12-08T06:28:19.243Z,6.60
2018-12-08T06:30:46.712Z,6.60
2018-12-08T06:33:14.238Z,6.50
2018-12-08T06:35:41.733Z,6.50
2018-12-08T06:38:09.208Z,6.50
2018-12-08T06:40:36.681Z,6.50
2018-12-08T06:43:04.479Z,6.40
2018-12-08T06:45:31.950Z,6.40
2018-12-08T06:47:59.420Z,6.40
2018-12-08T06:50:26.920Z,6.40
2018-12-08T06:52:54.397Z,6.40
2018-12-08T06:55:21.869Z,6.40
2018-12-08T06:57:49.376Z,6.30
2018-12-08T07:00:16.893Z,6.40
2018-12-08T07:02:44.388Z,6.30
2018-12-08T07:05:11.904Z,6.30
2018-12-08T07:07:39.377Z,6.30
2018-12-08T07:10:06.944Z,6.30
2018-12-08T07:12:34.448Z,6.30
2018-12-08T07:15:01.921Z,6.40
2018-12-08T07:17:29.401Z,6.30
2018-12-08T07:19:56.904Z,6.30
2018-12-08T07:22:24.372Z,6.30
2018-12-08T07:24:51.844Z,6.30
2018-12-08T07:27:19.337Z,6.30
2018-12-08T07:29:46.809Z,6.30
2018-12-08T07:32:14.285Z,6.30
2018-12-08T07:34:41.996Z,6.10
2018-12-08T07:37:09.473Z,6.20
2018-12-08T07:39:36.947Z,6.20
2018-12-08T07:42:04.456Z,6.20
2018-12-08T07:44:31.929Z,6.30
2018-12-08T07:46:59.402Z,6.30
2018-12-08T07:49:26.931Z,6.30
2018-12-08T07:51:54.401Z,6.30
2018-12-08T07:54:21.874Z,6.20
2018-12-08T07:56:49.369Z,6.10
2018-12-08T07:59:16.852Z,6.10
2018-12-08T08:01:44.325Z,6.10
2018-12-08T08:04:11.829Z,6.10
2018-12-08T08:06:39.300Z,6.00
2018-12-08T08:09:06.804Z,6.10
2018-12-08T08:11:34.316Z,6.10
2018-12-08T08:14:01.784Z,6.10
2018-12-08T08:16:29.298Z,6.00
2018-12-08T08:18:56.801Z,6.00
2018-12-08T08:21:24.280Z,6.00
2018-12-08T08:23:51.747Z,6.00
2018-12-08T08:26:19.244Z,6.00
2018-12-08T08:28:46.714Z,6.00
2018-12-08T08:31:14.187Z,6.00
2018-12-08T08:33:41.748Z,6.10
2018-12-08T08:36:09.515Z,6.00
2018-12-08T08:38:36.992Z,6.00
2018-12-08T08:41:04.505Z,5.90
2018-12-08T08:43:31.987Z,5.80
2018-12-08T08:45:59.470Z,5.80
2018-12-08T08:48:26.990Z,5.80
2018-12-08T08:50:54.470Z,5.80
2018-12-08T08:53:21.940Z,5.80
2018-12-08T08:55:49.456Z,5.90
2018-12-08T08:58:16.994Z,5.90
2018-12-08T09:00:44.469Z,5.90
2018-12-08T09:03:11.975Z,6.00
2018-12-08T09:05:39.449Z,6.00
2018-12-08T09:08:06.928Z,6.00
2018-12-08T09:10:34.425Z,5.90
2018-12-08T09:13:01.927Z,6.00
2018-12-08T09:15:29.391Z,6.00
2018-12-08T09:17:56.889Z,6.00
2018-12-08T09:20:24.358Z,6.00
2018-12-08T09:22:51.832Z,6.10
2018-12-08T09:25:19.321Z,6.20
2018-12-08T09:27:46.796Z,6.30
2018-12-08T09:30:14.261Z,6.30
2018-12-08T09:32:41.764Z,6.30
2018-12-08T09:35:09.242Z,6.40
2018-12-08T09:37:36.781Z,6.50
2018-12-08T09:40:06.012Z,6.50
2018-12-08T09:42:33.490Z,6.50
2018-12-08T09:45:00.972Z,6.60
2018-12-08T09:47:28.472Z,6.60
2018-12-08T09:49:55.942Z,6.70
2018-12-08T09:52:23.410Z,6.80
2018-12-08T09:54:50.913Z,6.80
2018-12-08T09:57:18.385Z,6.80
2018-12-08T09:59:45.857Z,6.80
2018-12-08T10:02:13.361Z,6.80
2018-12-08T10:04:40.837Z,6.80
2018-12-08T10:07:08.315Z,6.90
2018-12-08T10:09:35.977Z,6.90
2018-12-08T10:12:03.471Z,7.00
2018-12-08T10:14:30.943Z,7.00
2018-12-08T10:16:58.454Z,7.00
2018-12-08T10:19:25.925Z,7.00
2018-12-08T10:21:53.398Z,7.00
2018-12-08T10:24:20.911Z,7.00
2018-12-08T10:26:48.385Z,7.00
2018-12-08T10:29:15.853Z,7.10
2018-12-08T10:31:43.792Z,7.10
2018-12-08T10:34:11.294Z,7.10
2018-12-08T10:36:38.766Z,7.20
2018-12-08T10:39:07.128Z,7.30
2018-12-08T10:41:34.609Z,7.30
2018-12-08T10:44:02.181Z,7.30
2018-12-08T10:46:29.682Z,7.40
2018-12-08T10:48:57.145Z,7.40
2018-12-08T10:51:24.613Z,7.40
2018-12-08T10:53:52.129Z,7.30
2018-12-08T10:56:19.597Z,7.40
2018-12-08T10:58:47.069Z,7.40
2018-12-08T11:01:18.804Z,7.40
2018-12-08T11:03:47.548Z,7.40
2018-12-08T11:06:16.889Z,7.40
2018-12-08T11:08:44.537Z,7.40
2018-12-08T11:11:12.004Z,7.40
2018-12-08T11:13:39.472Z,7.40
2018-12-08T11:16:06.972Z,7.50
2018-12-08T11:18:34.441Z,7.60
2018-12-08T11:21:01.909Z,7.60
2018-12-08T11:23:29.440Z,7.60
2018-12-08T11:25:56.914Z,7.60
2018-12-08T11:28:24.388Z,7.70
2018-12-08T11:30:51.897Z,7.70
2018-12-08T11:33:19.362Z,7.70
2018-12-08T11:35:46.840Z,7.80
2018-12-08T11:38:14.353Z,7.70
2018-12-08T11:40:41.830Z,7.80
2018-12-08T11:43:09.301Z,7.80
2018-12-08T11:45:36.810Z,7.90
2018-12-08T11:48:04.285Z,8.00
2018-12-08T11:50:31.761Z,7.90
2018-12-08T11:52:59.247Z,7.90
2018-12-08T11:55:30.358Z,7.90
2018-12-08T11:57:56.212Z,7.80
2018-12-08T12:00:23.753Z,7.90
2018-12-08T12:02:51.224Z,7.80
2018-12-08T12:05:19.017Z,7.80
2018-12-08T12:07:46.528Z,7.80
2018-12-08T12:10:13.998Z,7.80
2018-12-08T12:12:41.475Z,7.70
2018-12-08T12:15:09.000Z,7.70
2018-12-08T12:17:36.465Z,7.70
2018-12-08T12:20:06.030Z,7.70
2018-12-08T12:22:33.539Z,7.70
2018-12-08T12:25:01.601Z,7.70
2018-12-08T12:27:29.076Z,7.70
2018-12-08T12:29:56.576Z,7.70
2018-12-08T12:32:24.046Z,7.70
2018-12-08T12:34:51.512Z,7.70
2018-12-08T12:37:19.151Z,7.70
2018-12-08T12:39:46.632Z,7.70
2018-12-08T12:42:14.112Z,7.70
2018-12-08T12:44:41.629Z,7.70
2018-12-08T12:47:09.118Z,7.70
2018-12-08T12:49:36.595Z,7.60
2018-12-08T12:52:04.105Z,7.70
2018-12-08T12:54:31.589Z,7.70
2018-12-08T12:56:59.081Z,7.80
2018-12-08T12:59:26.601Z,7.80
2018-12-08T13:01:54.069Z,7.80
2018-12-08T13:04:21.542Z,7.80
2018-12-08T13:06:49.053Z,7.80
2018-12-08T13:09:16.530Z,7.80
2018-12-08T13:11:45.089Z,7.70
2018-12-08T13:14:13.303Z,7.70
2018-12-08T13:16:41.087Z,7.80
2018-12-08T13:19:08.559Z,7.70
2018-12-08T13:21:36.052Z,7.80
2018-12-08T13:24:03.651Z,7.80
2018-12-08T13:26:31.116Z,7.80
2018-12-08T13:28:58.636Z,7.70
2018-12-08T13:31:26.104Z,7.60
2018-12-08T13:33:53.621Z,7.60
2018-12-08T13:36:21.116Z,7.50
2018-12-08T13:38:48.585Z,7.50
2018-12-08T13:41:16.063Z,7.40
2018-12-08T13:43:47.541Z,7.40
2018-12-08T13:46:15.025Z,7.40
2018-12-08T13:48:42.588Z,7.40
2018-12-08T13:51:10.097Z,7.50
2018-12-08T13:53:37.609Z,7.50
2018-12-08T13:56:05.083Z,7.40
2018-12-08T13:58:32.580Z,7.40
2018-12-08T14:01:00.054Z,7.40
2018-12-08T14:03:27.548Z,7.50
2018-12-08T14:05:55.048Z,7.50
2018-12-08T14:08:22.521Z,7.50
2018-12-08T14:10:49.999Z,7.50
2018-12-08T14:13:17.492Z,7.50
2018-12-08T14:15:44.961Z,7.40
2018-12-08T14:18:12.439Z,7.30
2018-12-08T14:20:39.942Z,7.30
2018-12-08T14:23:07.417Z,7.20
2018-12-08T14:25:34.885Z,7.10
2018-12-08T14:28:02.384Z,7.20
2018-12-08T14:30:29.848Z,7.20
2018-12-08T14:32:57.384Z,7.30
2018-12-08T14:35:25.041Z,7.30
2018-12-08T14:37:52.566Z,7.20
2018-12-08T14:40:20.616Z,7.20
2018-12-08T14:42:48.330Z,7.20
2018-12-08T14:45:15.857Z,7.20
2018-12-08T14:47:43.332Z,7.30
2018-12-08T14:50:10.828Z,7.30
2018-12-08T14:52:38.306Z,7.30
2018-12-08T14:55:05.781Z,7.30
2018-12-08T14:57:33.286Z,7.40
2018-12-08T15:00:00.757Z,7.40
2018-12-08T15:02:28.226Z,7.30
2018-12-08T15:04:55.740Z,7.40
2018-12-08T15:07:23.211Z,7.30
2018-12-08T15:09:50.784Z,7.30
2018-12-08T15:12:18.333Z,7.30
2018-12-08T15:14:45.805Z,7.30
2018-12-08T15:17:13.357Z,7.20
2018-12-08T15:19:40.866Z,7.20
2018-12-08T15:22:09.012Z,7.20
2018-12-08T15:24:36.497Z,7.20
2018-12-08T15:27:04.006Z,7.20
2018-12-08T15:29:31.512Z,7.20
2018-12-08T15:31:58.996Z,7.20
2018-12-08T15:34:26.559Z,7.20
2018-12-08T15:36:54.211Z,7.20
2018-12-08T15:39:21.681Z,7.10
2018-12-08T15:41:49.186Z,7.00
2018-12-08T15:44:16.779Z,7.00
2018-12-08T15:46:44.249Z,7.10
2018-12-08T15:49:11.933Z,7.10
2018-12-08T15:51:39.402Z,7.10
2018-12-08T15:54:06.892Z,7.00
2018-12-08T15:56:34.385Z,7.00
2018-12-08T15:59:01.864Z,7.00
2018-12-08T16:01:29.341Z,7.00
2018-12-08T16:03:56.977Z,7.00
2018-12-08T16:06:24.445Z,7.00
2018-12-08T16:08:51.916Z,7.00
2018-12-08T16:11:19.453Z,7.00
2018-12-08T16:13:46.921Z,7.00
2018-12-08T16:16:14.388Z,7.00
2018-12-08T16:18:41.897Z,7.00
2018-12-08T16:21:09.491Z,7.10
2018-12-08T16:23:36.961Z,7.00
2018-12-08T16:26:04.464Z,6.90
2018-12-08T16:28:31.928Z,7.00
2018-12-08T16:30:59.401Z,7.00
2018-12-08T16:33:26.914Z,7.00
2018-12-08T16:35:54.381Z,7.00
2018-12-08T16:38:21.850Z,7.00
2018-12-08T16:40:49.352Z,7.00
2018-12-08T16:43:16.828Z,7.00
2018-12-08T16:45:44.365Z,7.00
2018-12-08T16:48:11.908Z,7.00
2018-12-08T16:50:41.037Z,7.00
2018-12-08T16:53:08.893Z,7.00
2018-12-08T16:55:36.400Z,7.00
2018-12-08T16:58:03.872Z,7.00
2018-12-08T17:00:31.341Z,7.00
2018-12-08T17:02:58.843Z,7.00
2018-12-08T17:05:26.486Z,6.90
2018-12-08T17:07:53.953Z,6.90
2018-12-08T17:10:21.585Z,6.90
2018-12-08T17:12:50.109Z,6.90
2018-12-08T17:15:17.740Z,6.80
2018-12-08T17:17:45.249Z,6.70
2018-12-08T17:20:12.742Z,6.70
2018-12-08T17:22:40.209Z,6.70
2018-12-08T17:25:07.731Z,6.70
2018-12-08T17:27:35.216Z,6.70
2018-12-08T17:30:02.700Z,6.70
2018-12-08T17:32:30.239Z,6.70
2018-12-08T17:34:57.745Z,6.70
2018-12-08T17:37:25.625Z,6.70
2018-12-08T17:39:53.337Z,6.80
2018-12-08T17:42:20.860Z,6.80
2018-12-08T17:44:48.382Z,6.80
2018-12-08T17:47:15.946Z,6.80
2018-12-08T17:49:43.534Z,6.80
2018-12-08T17:52:11.054Z,6.80
2018-12-08T17:54:38.617Z,6.80
2018-12-08T17:57:06.106Z,6.80
2018-12-08T17:59:33.599Z,6.80
2018-12-08T18:02:01.135Z,6.80
2018-12-08T18:04:28.671Z,6.80
2018-12-08T18:06:56.149Z,6.80
2018-12-08T18:09:23.848Z,6.80
2018-12-08T18:11:51.382Z,6.80
2018-12-08T18:14:18.886Z,6.70
2018-12-08T18:16:46.389Z,6.70
2018-12-08T18:19:13.864Z,6.70
2018-12-08T18:21:41.486Z,6.70
2018-12-08T18:24:09.081Z,6.60
2018-12-08T18:26:36.569Z,6.70
2018-12-08T18:29:04.054Z,6.60
2018-12-08T18:31:31.570Z,6.70
2018-12-08T18:33:59.061Z,6.70
2018-12-08T18:36:26.541Z,6.70
2018-12-08T18:38:54.157Z,6.70
2018-12-08T18:41:21.633Z,6.70
2018-12-08T18:43:49.118Z,6.70
2018-12-08T18:46:16.643Z,6.70
2018-12-08T18:48:44.231Z,6.70
2018-12-08T18:51:11.719Z,6.70
2018-12-08T18:53:39.233Z,6.70
2018-12-08T18:56:06.713Z,6.60
2018-12-08T18:58:34.193Z,6.50
2018-12-08T19:01:01.698Z,6.40
2018-12-08T19:03:33.467Z,6.40
2018-12-08T19:06:00.964Z,6.30
2018-12-08T19:08:28.475Z,6.30
2018-12-08T19:10:55.952Z,6.30
2018-12-08T19:13:23.449Z,6.30
2018-12-08T19:15:50.969Z,6.30
2018-12-08T19:18:18.458Z,6.30
2018-12-08T19:20:45.949Z,6.30
2018-12-08T19:23:13.477Z,6.20
2018-12-08T19:25:40.967Z,6.20
2018-12-08T19:28:08.458Z,6.20
2018-12-08T19:30:35.977Z,6.20
2018-12-08T19:33:03.458Z,6.20
2018-12-08T19:35:30.950Z,6.20
2018-12-08T19:37:58.465Z,6.20
2018-12-08T19:40:25.933Z,6.20
2018-12-08T19:42:53.422Z,6.10
2018-12-08T19:45:21.104Z,6.20
2018-12-08T19:47:48.644Z,6.10
2018-12-08T19:50:16.414Z,6.20
2018-12-08T19:52:43.934Z,6.10
2018-12-08T19:55:11.492Z,6.20
2018-12-08T19:57:38.982Z,6.10
2018-12-08T20:00:07.694Z,6.10
2018-12-08T20:02:35.201Z,6.10
2018-12-08T20:05:02.689Z,6.10
2018-12-08T20:07:30.204Z,6.10
2018-12-08T20:09:57.687Z,6.10
2018-12-08T20:12:25.162Z,6.10
2018-12-08T20:14:52.668Z,6.10
2018-12-08T20:17:20.182Z,6.10
2018-12-08T20:19:47.663Z,6.00
2018-12-08T20:22:15.162Z,6.00
2018-12-08T20:24:42.641Z,6.00
2018-12-08T20:27:10.263Z,6.00
2018-12-08T20:29:37.774Z,6.10
2018-12-08T20:32:05.253Z,6.10
2018-12-08T20:34:32.730Z,6.00
2018-12-08T20:37:00.241Z,6.00
2018-12-08T20:39:27.717Z,6.00
2018-12-08T20:41:55.185Z,6.00
2018-12-08T20:44:22.709Z,6.00
2018-12-08T20:46:50.189Z,6.00
2018-12-08T20:49:17.668Z,6.00
2018-12-08T20:51:45.213Z,6.00
2018-12-08T20:54:12.689Z,6.00
2018-12-08T20:56:40.166Z,6.00
2018-12-08T20:59:07.689Z,6.00
2018-12-08T21:01:35.168Z,6.00
2018-12-08T21:04:02.639Z,6.00
2018-12-08T21:06:30.137Z,6.00
2018-12-08T21:08:57.614Z,6.00
2018-12-08T21:11:25.996Z,6.00
2018-12-08T21:13:53.513Z,6.00
2018-12-08T21:16:20.993Z,6.00
2018-12-08T21:18:48.470Z,6.00
2018-12-08T21:21:16.033Z,6.00
2018-12-08T21:23:43.508Z,6.00
2018-12-08T21:26:10.983Z,6.10
2018-12-08T21:28:38.500Z,6.00
2018-12-08T21:31:05.974Z,6.00
2018-12-08T21:33:33.451Z,6.00
2018-12-08T21:36:00.949Z,5.90
2018-12-08T21:38:28.440Z,5.80
2018-12-08T21:40:55.917Z,5.80
2018-12-08T21:43:23.412Z,5.70
2018-12-08T21:45:50.892Z,5.60
2018-12-08T21:48:18.366Z,5.50
2018-12-08T21:50:45.922Z,5.40
2018-12-08T21:53:13.588Z,5.40
2018-12-08T21:55:41.064Z,5.40
2018-12-08T21:58:08.612Z,5.40
2018-12-08T22:00:36.081Z,5.40
2018-12-08T22:03:03.558Z,5.40
2018-12-08T22:05:31.077Z,5.40
2018-12-08T22:07:58.561Z,5.50
2018-12-08T22:10:26.038Z,5.40
2018-12-08T22:12:53.697Z,5.30
2018-12-08T22:15:21.569Z,5.30
2018-12-08T22:17:49.060Z,5.20
2018-12-08T22:20:16.562Z,5.20
2018-12-08T22:22:44.103Z,5.10
2018-12-08T22:25:11.578Z,5.10
2018-12-08T22:27:39.078Z,5.10
2018-12-08T22:30:06.574Z,5.00
2018-12-08T22:32:34.043Z,4.90
2018-12-08T22:35:01.553Z,4.90
2018-12-08T22:37:29.189Z,4.90
2018-12-08T22:39:57.017Z,4.90
2018-12-08T22:42:24.517Z,4.90
2018-12-08T22:44:51.994Z,4.90
2018-12-08T22:47:19.464Z,4.80
2018-12-08T22:49:46.958Z,4.80
2018-12-08T22:52:14.432Z,4.80
2018-12-08T22:54:41.974Z,4.90
2018-12-08T22:57:09.478Z,4.80
2018-12-08T22:59:37.219Z,4.80
2018-12-08T23:02:04.701Z,4.80
2018-12-08T23:04:32.213Z,4.90
2018-12-08T23:07:00.765Z,4.80
2018-12-08T23:09:28.236Z,4.80
2018-12-08T23:11:56.030Z,4.70
2018-12-08T23:14:23.507Z,4.80
2018-12-08T23:16:50.974Z,4.80
2018-12-08T23:19:18.525Z,4.80
2018-12-08T23:21:45.997Z,4.80
2018-12-08T23:24:13.468Z,4.90
2018-12-08T23:26:40.977Z,4.80
2018-12-08T23:29:08.446Z,4.80
2018-12-08T23:31:35.920Z,4.80
2018-12-08T23:34:03.422Z,4.70
2018-12-08T23:36:30.987Z,4.70
2018-12-08T23:38:58.494Z,4.70
2018-12-08T23:41:25.997Z,4.70
2018-12-08T23:43:53.477Z,4.70
2018-12-08T23:46:21.036Z,4.60
2018-12-08T23:48:48.533Z,4.70
2018-12-08T23:51:16.009Z,4.60
2018-12-08T23:53:43.504Z,4.60
2018-12-08T23:56:11.403Z,4.50
2018-12-08T23:58:38.870Z,4.60
